Time;durP1;ratioP1;P1;durP2;ratioP2;P2;SDS_P1;SDS_P2;PMS_P1;PMS_P2;Temp;Humidity;BMP_temperature;BMP_pressure;BME280_temperature;BME280_humidity;BME280_pressure;Samples;Min_cycle;Max_cycle;Signal;HPM_P1;HPM_P2
2024/03/01 00:01:52;;;;;;;7.72;2.10;;;;;;;;;;4995696;28;20030;-90
2024/03/01 00:04:19;;;;;;;7.38;2.40;;;;;;;;;;5001528;28;20034;-90
2024/03/01 00:06:45;;;;;;;7.88;1.98;;;;;;;;;;4996402;28;20172;-88
2024/03/01 00:09:11;;;;;;;6.25;1.98;;;;;;;;;;4994133;28;20030;-92
2024/03/01 00:11:37;;;;;;;6.88;2.08;;;;;;;;;;4996989;28;20112;-92
2024/03/01 00:14:03;;;;;;;6.75;2.00;;;;;;;;;;5012521;28;20049;-92
2024/03/01 00:16:29;;;;;;;6.60;2.10;;;;;;;;;;4997326;28;20033;-91
2024/03/01 00:18:55;;;;;;;;;;;;;;;;;;4994623;28;20037;-92
2024/03/01 00:21:21;;;;;;;7.95;2.10;;;;;;;;;;5001308;28;20280;-91
2024/03/01 00:23:47;;;;;;;6.47;1.75;;;;;;;;;;4989505;28;20026;-91
2024/03/01 00:26:14;;;;;;;7.65;1.90;;;;;;;;;;5005210;28;20129;-91
2024/03/01 00:28:40;;;;;;;7.10;1.90;;;;;;;;;;5012189;28;20041;-90
2024/03/01 00:31:06;;;;;;;6.93;2.10;;;;;;;;;;4995020;28;20229;-90
2024/03/01 00:33:33;;;;;;;;;;;;;;;;;;5010763;28;20034;-90
2024/03/01 00:36:00;;;;;;;4.15;1.40;;;;;;;;;;5005967;28;19947;-91
2024/03/01 00:38:26;;;;;;;8.50;1.90;;;;;;;;;;4995728;28;20046;-91
2024/03/01 00:40:52;;;;;;;8.85;2.08;;;;;;;;;;5011066;28;20057;-92
2024/03/01 00:43:18;;;;;;;7.25;1.80;;;;;;;;;;5005228;28;20073;-92
2024/03/01 00:45:45;;;;;;;6.65;1.88;;;;;;;;;;5010636;28;20017;-92
2024/03/01 00:48:12;;;;;;;6.72;1.90;;;;;;;;;;5016452;28;20073;-89
2024/03/01 00:50:39;;;;;;;6.65;1.60;;;;;;;;;;5016357;28;20025;-92
2024/03/01 00:53:05;;;;;;;5.28;1.65;;;;;;;;;;5024582;28;20065;-88
2024/03/01 00:55:31;;;;;;;;;;;;;;;;;;5019620;28;20109;-90
2024/03/01 00:57:57;;;;;;;8.48;2.42;;;;;;;;;;5014467;28;19920;-91
2024/03/01 01:00:23;;;;;;;7.70;2.40;;;;;;;;;;4996173;28;20072;-93
2024/03/01 01:02:49;;;;;;;;;;;;;;;;;;5020135;28;20061;-90
2024/03/01 01:05:15;;;;;;;6.95;2.13;;;;;;;;;;5005831;28;20006;-91
2024/03/01 01:07:42;;;;;;;4.53;1.58;;;;;;;;;;5006433;28;20033;-91
2024/03/01 01:10:08;;;;;;;4.70;1.63;;;;;;;;;;4998191;28;20930;-91
2024/03/01 01:12:34;;;;;;;6.70;1.40;;;;;;;;;;5017700;28;20133;-90
2024/03/01 01:15:00;;;;;;;;;;;;;;;;;;4998854;28;20128;-92
2024/03/01 01:17:27;;;;;;;6.93;1.63;;;;;;;;;;5003343;28;20040;-90
2024/03/01 01:19:54;;;;;;;6.00;1.70;;;;;;;;;;5012487;28;20092;-91
2024/03/01 01:22:20;;;;;;;6.93;2.72;;;;;;;;;;5016062;28;20017;-89
2024/03/01 01:24:46;;;;;;;8.93;3.75;;;;;;;;;;4999896;28;20243;-88
2024/03/01 01:27:12;;;;;;;8.13;3.58;;;;;;;;;;4994404;28;20018;-88
2024/03/01 01:29:39;;;;;;;6.65;2.40;;;;;;;;;;5002538;28;20049;-89
2024/03/01 01:32:05;;;;;;;6.45;2.45;;;;;;;;;;4999291;28;20017;-89
2024/03/01 01:34:31;;;;;;;;;;;;;;;;;;5003830;28;20037;-89
2024/03/01 01:36:57;;;;;;;6.28;1.80;;;;;;;;;;4999997;28;20244;-89
2024/03/01 01:39:23;;;;;;;5.55;1.75;;;;;;;;;;5019322;28;20017;-88
2024/03/01 01:41:49;;;;;;;5.55;1.77;;;;;;;;;;5000391;28;20029;-89
2024/03/01 01:44:15;;;;;;;6.38;2.00;;;;;;;;;;5004082;28;20029;-89
2024/03/01 01:46:42;;;;;;;5.55;1.90;;;;;;;;;;5017867;28;20064;-88
2024/03/01 01:49:08;;;;;;;7.80;1.95;;;;;;;;;;5016362;28;20457;-88
2024/03/01 01:51:35;;;;;;;7.00;1.92;;;;;;;;;;5001366;28;20033;-89
2024/03/01 01:54:02;;;;;;;6.28;2.00;;;;;;;;;;5014055;28;20045;-88
2024/03/01 01:56:29;;;;;;;7.97;2.10;;;;;;;;;;5016827;28;20053;-90
2024/03/01 01:58:56;;;;;;;6.93;2.30;;;;;;;;;;4996641;28;20025;-90
2024/03/01 02:01:22;;;;;;;6.60;2.20;;;;;;;;;;4993675;28;20034;-87
2024/03/01 02:03:48;;;;;;;;;;;;;;;;;;5003856;28;20059;-88
2024/03/01 02:06:14;;;;;;;6.93;2.40;;;;;;;;;;5010320;28;19917;-87
2024/03/01 02:08:40;;;;;;;5.82;2.00;;;;;;;;;;5025936;28;20037;-88
2024/03/01 02:11:07;;;;;;;5.47;1.88;;;;;;;;;;5010351;28;20029;-88
2024/03/01 02:13:33;;;;;;;6.38;2.10;;;;;;;;;;5014219;28;20029;-90
2024/03/01 02:15:59;;;;;;;7.10;2.30;;;;;;;;;;4995149;28;20030;-88
2024/03/01 02:18:26;;;;;;;6.72;2.25;;;;;;;;;;4996617;28;20026;-89
2024/03/01 02:21:00;;;;;;;7.82;2.28;;;;;;;;;;4996964;28;20029;-87
2024/03/01 02:23:26;;;;;;;8.05;2.50;;;;;;;;;;5000596;28;20018;-88
2024/03/01 02:25:53;;;;;;;8.70;2.72;;;;;;;;;;5010122;28;20029;-89
2024/03/01 02:28:19;;;;;;;8.02;2.92;;;;;;;;;;5007455;28;20072;-88
2024/03/01 02:30:45;;;;;;;7.90;2.60;;;;;;;;;;5000436;28;20037;-89
2024/03/01 02:33:11;;;;;;;8.52;2.72;;;;;;;;;;4991512;28;20031;-89
2024/03/01 02:35:37;;;;;;;;;;;;;;;;;;5012987;28;20064;-90
2024/03/01 02:38:04;;;;;;;7.40;2.50;;;;;;;;;;5013377;28;19917;-90
2024/03/01 02:40:30;;;;;;;;;;;;;;;;;;5010798;28;20025;-89
2024/03/01 02:42:56;;;;;;;8.00;2.65;;;;;;;;;;5011543;28;20714;-89
2024/03/01 02:45:22;;;;;;;11.63;5.05;;;;;;;;;;4999941;28;20253;-90
2024/03/01 02:47:48;;;;;;;9.52;3.80;;;;;;;;;;5011178;28;20040;-90
2024/03/01 02:50:14;;;;;;;;;;;;;;;;;;4998619;28;20041;-90
2024/03/01 02:52:40;;;;;;;8.25;3.00;;;;;;;;;;5010930;28;19909;-90
2024/03/01 02:55:07;;;;;;;9.27;3.70;;;;;;;;;;5022641;28;20045;-91
2024/03/01 02:57:33;;;;;;;;;;;;;;;;;;5018077;28;20077;-90
2024/03/01 02:59:59;;;;;;;9.10;2.95;;;;;;;;;;5008557;28;19917;-90
2024/03/01 03:02:26;;;;;;;7.13;2.30;;;;;;;;;;5019105;28;20115;-90
2024/03/01 03:04:55;;;;;;;7.20;2.00;;;;;;;;;;5023533;28;20057;-90
2024/03/01 03:07:21;;;;;;;6.40;1.98;;;;;;;;;;5005136;28;20097;-91
2024/03/01 03:09:47;;;;;;;3.10;1.10;;;;;;;;;;5015581;28;20044;-91
2024/03/01 03:12:14;;;;;;;3.42;1.00;;;;;;;;;;5020674;28;20029;-91
2024/03/01 03:14:40;;;;;;;4.05;0.90;;;;;;;;;;5007270;28;20061;-90
2024/03/01 03:17:06;;;;;;;4.25;1.20;;;;;;;;;;5007650;28;20036;-91
2024/03/01 03:19:32;;;;;;;;;;;;;;;;;;5019927;28;20067;-91
2024/03/01 03:21:58;;;;;;;2.80;0.90;;;;;;;;;;5015294;28;20365;-91
2024/03/01 03:24:24;;;;;;;2.75;0.70;;;;;;;;;;5012636;28;20098;-91
2024/03/01 03:26:50;;;;;;;2.85;0.80;;;;;;;;;;4999669;28;20041;-90
2024/03/01 03:29:16;;;;;;;2.03;0.70;;;;;;;;;;4996170;28;20033;-90
2024/03/01 03:31:42;;;;;;;1.70;0.60;;;;;;;;;;4994469;28;20038;-91
2024/03/01 03:34:09;;;;;;;3.60;0.90;;;;;;;;;;4995754;28;20033;-91
2024/03/01 03:36:35;;;;;;;3.22;0.88;;;;;;;;;;5017992;28;20046;-91
2024/03/01 03:39:02;;;;;;;3.65;1.00;;;;;;;;;;4994882;28;20110;-90
2024/03/01 03:41:28;;;;;;;4.95;1.00;;;;;;;;;;5015305;28;20021;-92
2024/03/01 03:43:54;;;;;;;2.92;0.65;;;;;;;;;;5018629;28;20128;-91
2024/03/01 03:46:20;;;;;;;2.55;0.75;;;;;;;;;;5025066;28;20026;-91
2024/03/01 03:48:46;;;;;;;3.47;0.88;;;;;;;;;;5016813;28;20042;-90
2024/03/01 03:51:21;;;;;;;4.53;0.98;;;;;;;;;;5009473;28;20029;-91
2024/03/01 03:53:47;;;;;;;6.25;1.00;;;;;;;;;;5011871;28;20137;-91
2024/03/01 03:56:14;;;;;;;4.25;1.00;;;;;;;;;;5009405;28;20100;-91
2024/03/01 03:58:40;;;;;;;3.80;0.85;;;;;;;;;;4993773;28;20308;-91
2024/03/01 04:01:07;;;;;;;4.10;0.73;;;;;;;;;;5011986;28;20040;-91
2024/03/01 04:03:33;;;;;;;3.17;0.82;;;;;;;;;;5007937;28;20056;-91
2024/03/01 04:05:59;;;;;;;4.43;0.90;;;;;;;;;;4995682;28;20054;-91
2024/03/01 04:08:25;;;;;;;3.92;0.93;;;;;;;;;;5013705;28;20029;-91
2024/03/01 04:10:51;;;;;;;4.10;0.90;;;;;;;;;;4997600;28;20092;-91
2024/03/01 04:13:17;;;;;;;2.75;0.73;;;;;;;;;;4997077;28;20038;-92
2024/03/01 04:15:43;;;;;;;3.30;0.80;;;;;;;;;;4999139;28;20038;-91
2024/03/01 04:18:10;;;;;;;3.45;0.82;;;;;;;;;;4995742;28;20041;-91
2024/03/01 04:20:36;;;;;;;0.93;0.50;;;;;;;;;;4996914;28;20030;-91
2024/03/01 04:23:04;;;;;;;1.50;0.50;;;;;;;;;;4999880;28;20497;-91
2024/03/01 04:25:32;;;;;;;4.05;0.88;;;;;;;;;;5013936;28;20061;-90
2024/03/01 04:27:58;;;;;;;3.95;1.00;;;;;;;;;;5005680;28;20044;-91
2024/03/01 04:30:24;;;;;;;5.30;1.63;;;;;;;;;;5001584;28;20029;-90
2024/03/01 04:32:50;;;;;;;6.35;2.00;;;;;;;;;;5014552;28;20033;-91
2024/03/01 04:35:16;;;;;;;8.20;2.78;;;;;;;;;;5021987;28;20034;-89
2024/03/01 04:37:44;;;;;;;3.20;1.00;;;;;;;;;;5011312;28;20033;-91
2024/03/01 04:40:11;;;;;;;4.50;1.38;;;;;;;;;;5025279;28;20539;-91
2024/03/01 04:42:41;;;;;;;9.23;3.78;;;;;;;;;;5005402;28;20039;-91
2024/03/01 04:45:08;;;;;;;5.32;1.52;;;;;;;;;;4999748;28;20392;-90
2024/03/01 04:47:34;;;;;;;6.47;2.08;;;;;;;;;;5021139;28;20698;-90
2024/03/01 04:50:00;;;;;;;5.25;1.30;;;;;;;;;;5011658;28;20064;-90
2024/03/01 04:52:26;;;;;;;9.23;3.40;;;;;;;;;;5011492;28;20533;-90
2024/03/01 04:54:53;;;;;;;7.03;2.17;;;;;;;;;;5002283;28;20045;-90
2024/03/01 04:57:19;;;;;;;6.13;2.10;;;;;;;;;;5022074;28;20104;-90
2024/03/01 04:59:45;;;;;;;4.70;1.38;;;;;;;;;;5008041;28;20099;-90
2024/03/01 05:02:11;;;;;;;5.90;2.00;;;;;;;;;;4998463;28;20030;-90
2024/03/01 05:04:37;;;;;;;7.75;2.33;;;;;;;;;;5016896;28;20065;-89
2024/03/01 05:07:03;;;;;;;5.65;1.50;;;;;;;;;;4994498;28;20520;-90
2024/03/01 05:09:29;;;;;;;5.38;1.70;;;;;;;;;;4997300;28;20040;-89
2024/03/01 05:11:55;;;;;;;;;;;;;;;;;;4994833;28;20038;-89
2024/03/01 05:14:22;;;;;;;9.18;3.65;;;;;;;;;;4999159;28;19928;-90
2024/03/01 05:16:48;;;;;;;7.38;2.33;;;;;;;;;;5011270;28;20034;-89
2024/03/01 05:19:14;;;;;;;7.55;2.67;;;;;;;;;;5014571;28;20029;-89
2024/03/01 05:21:40;;;;;;;11.63;5.10;;;;;;;;;;4994092;28;20036;-90
2024/03/01 05:24:07;;;;;;;8.98;3.10;;;;;;;;;;5010003;28;20034;-90
2024/03/01 05:26:33;;;;;;;5.10;1.50;;;;;;;;;;4997176;28;20025;-90
2024/03/01 05:29:00;;;;;;;3.20;0.90;;;;;;;;;;5004396;28;20048;-90
2024/03/01 05:31:28;;;;;;;5.40;1.20;;;;;;;;;;5012601;28;20030;-90
2024/03/01 05:33:54;;;;;;;2.70;0.98;;;;;;;;;;5009574;28;20676;-90
2024/03/01 05:36:20;;;;;;;;;;;;;;;;;;5014170;28;20121;-90
2024/03/01 05:38:46;;;;;;;5.00;1.20;;;;;;;;;;5000122;28;20004;-89
2024/03/01 05:41:12;;;;;;;2.92;1.10;;;;;;;;;;4990605;28;20033;-89
2024/03/01 05:43:40;;;;;;;4.30;1.23;;;;;;;;;;5015839;28;20040;-89
2024/03/01 05:46:14;;;;;;;1.95;0.80;;;;;;;;;;5001261;28;20030;-89
2024/03/01 05:48:41;;;;;;;3.53;0.80;;;;;;;;;;4995095;28;20117;-89
2024/03/01 05:51:09;;;;;;;2.13;0.80;;;;;;;;;;4991547;28;20026;-90
2024/03/01 05:53:35;;;;;;;3.05;1.08;;;;;;;;;;4990284;28;20034;-90
2024/03/01 05:56:01;;;;;;;3.58;0.93;;;;;;;;;;4994313;28;20511;-89
2024/03/01 05:58:27;;;;;;;2.92;0.80;;;;;;;;;;5008344;28;20026;-90
2024/03/01 06:00:54;;;;;;;2.95;0.90;;;;;;;;;;4997048;28;20088;-89
2024/03/01 06:03:22;;;;;;;3.72;1.00;;;;;;;;;;5020286;28;20014;-90
2024/03/01 06:05:48;;;;;;;3.00;0.88;;;;;;;;;;5027633;28;20068;-90
2024/03/01 06:08:14;;;;;;;4.20;0.93;;;;;;;;;;5008069;28;20068;-90
2024/03/01 06:10:40;;;;;;;3.53;0.90;;;;;;;;;;5011331;28;20034;-90
2024/03/01 06:13:06;;;;;;;2.55;0.90;;;;;;;;;;5013905;28;20320;-90
2024/03/01 06:15:33;;;;;;;2.67;0.70;;;;;;;;;;5010017;28;20087;-89
2024/03/01 06:17:59;;;;;;;1.88;0.73;;;;;;;;;;5006191;28;20442;-89
2024/03/01 06:20:25;;;;;;;3.35;0.82;;;;;;;;;;4998223;28;20040;-89
2024/03/01 06:22:51;;;;;;;1.35;0.65;;;;;;;;;;5005369;28;20037;-90
2024/03/01 06:25:17;;;;;;;2.70;0.73;;;;;;;;;;5000654;28;20057;-90
2024/03/01 06:27:43;;;;;;;4.53;0.90;;;;;;;;;;5005054;28;20137;-90
2024/03/01 06:30:10;;;;;;;1.88;0.60;;;;;;;;;;5003619;28;20033;-90
2024/03/01 06:32:36;;;;;;;2.45;0.60;;;;;;;;;;5002955;28;20076;-90
2024/03/01 06:35:03;;;;;;;1.38;0.60;;;;;;;;;;4995517;28;20123;-91
2024/03/01 06:37:29;;;;;;;2.45;0.80;;;;;;;;;;5005578;28;20061;-91
2024/03/01 06:39:55;;;;;;;4.35;1.00;;;;;;;;;;4999333;28;20022;-90
2024/03/01 06:42:22;;;;;;;5.07;1.08;;;;;;;;;;5020131;28;20455;-91
2024/03/01 06:44:48;;;;;;;4.32;1.00;;;;;;;;;;5022204;28;20206;-91
2024/03/01 06:47:14;;;;;;;6.13;1.20;;;;;;;;;;4995904;28;20034;-91
2024/03/01 06:49:40;;;;;;;7.95;1.58;;;;;;;;;;4993850;28;20026;-91
2024/03/01 06:52:06;;;;;;;8.73;1.63;;;;;;;;;;4993914;28;20029;-90
2024/03/01 06:54:33;;;;;;;7.90;1.52;;;;;;;;;;4991923;28;20045;-90
2024/03/01 06:56:59;;;;;;;6.93;1.20;;;;;;;;;;5014816;28;20031;-90
2024/03/01 06:59:25;;;;;;;7.82;1.52;;;;;;;;;;4995718;28;20026;-89
2024/03/01 07:01:51;;;;;;;6.45;1.33;;;;;;;;;;4998219;28;20038;-90
2024/03/01 07:04:17;;;;;;;6.95;1.52;;;;;;;;;;5011658;28;20410;-90
2024/03/01 07:06:43;;;;;;;7.78;1.55;;;;;;;;;;4997894;28;20060;-90
2024/03/01 07:09:09;;;;;;;6.80;1.50;;;;;;;;;;4994048;28;20918;-89
2024/03/01 07:11:35;;;;;;;6.78;1.50;;;;;;;;;;4994966;28;20034;-90
2024/03/01 07:14:02;;;;;;;5.30;1.55;;;;;;;;;;4998865;28;20712;-90
2024/03/01 07:16:28;;;;;;;8.30;1.70;;;;;;;;;;4995332;28;20025;-90
2024/03/01 07:18:54;;;;;;;6.18;1.60;;;;;;;;;;5006557;28;20037;-90
2024/03/01 07:21:20;;;;;;;9.70;2.03;;;;;;;;;;5021846;28;20025;-89
2024/03/01 07:23:46;;;;;;;10.40;2.22;;;;;;;;;;5024953;28;20037;-89
2024/03/01 07:26:12;;;;;;;13.63;2.85;;;;;;;;;;5022602;28;20569;-90
2024/03/01 07:28:38;;;;;;;10.52;2.40;;;;;;;;;;5020699;28;20022;-92
2024/03/01 07:31:04;;;;;;;12.93;3.15;;;;;;;;;;5006062;28;20026;-91
2024/03/01 07:33:30;;;;;;;;;;;;;;;;;;5021410;28;20037;-91
2024/03/01 07:35:56;;;;;;;11.07;2.65;;;;;;;;;;5010322;28;19927;-91
2024/03/01 07:38:22;;;;;;;11.82;2.58;;;;;;;;;;5017895;28;20660;-90
2024/03/01 07:40:49;;;;;;;11.50;2.50;;;;;;;;;;5003084;28;20038;-90
2024/03/01 07:43:15;;;;;;;11.38;2.60;;;;;;;;;;5006106;28;20032;-90
2024/03/01 07:45:41;;;;;;;12.63;2.80;;;;;;;;;;5021912;28;20095;-92
2024/03/01 07:48:07;;;;;;;13.15;2.60;;;;;;;;;;5004504;28;20604;-90
2024/03/01 07:50:33;;;;;;;11.35;2.70;;;;;;;;;;5005543;28;20044;-90
2024/03/01 07:52:59;;;;;;;12.18;2.75;;;;;;;;;;4996362;28;20474;-90
2024/03/01 07:55:25;;;;;;;14.15;3.00;;;;;;;;;;4997308;28;20511;-90
2024/03/01 07:57:51;;;;;;;16.67;3.42;;;;;;;;;;5002998;28;20022;-89
2024/03/01 08:00:18;;;;;;;13.68;2.92;;;;;;;;;;5023150;28;20005;-89
2024/03/01 08:02:44;;;;;;;11.93;3.08;;;;;;;;;;4996581;28;20034;-91
2024/03/01 08:05:10;;;;;;;12.23;2.72;;;;;;;;;;4991925;28;20068;-90
2024/03/01 08:07:37;;;;;;;18.70;3.63;;;;;;;;;;4991766;28;20056;-91
2024/03/01 08:10:03;;;;;;;;;;;;;;;;;;5008449;28;20060;-91
2024/03/01 08:12:29;;;;;;;18.13;3.57;;;;;;;;;;5002344;28;19952;-90
2024/03/01 08:14:55;;;;;;;14.50;3.42;;;;;;;;;;5009721;28;20040;-90
2024/03/01 08:17:21;;;;;;;15.95;3.17;;;;;;;;;;5022884;28;20022;-90
2024/03/01 08:19:50;;;;;;;14.10;4.20;;;;;;;;;;5022865;28;20025;-90
2024/03/01 08:22:17;;;;;;;14.35;3.95;;;;;;;;;;5007150;28;20844;-91
2024/03/01 08:24:46;;;;;;;16.75;4.25;;;;;;;;;;5001009;28;20395;-91
2024/03/01 08:27:12;;;;;;;16.48;4.20;;;;;;;;;;4996254;28;20063;-90
2024/03/01 08:29:40;;;;;;;17.27;3.55;;;;;;;;;;4996983;28;20037;-91
2024/03/01 08:32:07;;;;;;;14.50;3.78;;;;;;;;;;4999699;28;20536;-91
2024/03/01 08:34:55;;;;;;;15.30;3.83;;;;;;;;;;4997750;28;20038;-91
2024/03/01 08:37:24;;;;;;;17.10;3.72;;;;;;;;;;5002737;28;20029;-91
2024/03/01 08:39:50;;;;;;;15.45;3.67;;;;;;;;;;5014097;28;20052;-90
2024/03/01 08:42:16;;;;;;;17.40;3.72;;;;;;;;;;5010591;28;20374;-90
2024/03/01 08:44:58;;;;;;;18.42;4.30;;;;;;;;;;5025106;28;20037;-91
2024/03/01 08:47:25;;;;;;;14.45;3.72;;;;;;;;;;5015063;28;20028;-91
2024/03/01 08:49:51;;;;;;;15.65;4.28;;;;;;;;;;5009878;28;20042;-92
2024/03/01 08:52:47;;;;;;;14.35;4.18;;;;;;;;;;5005991;28;20025;-90
2024/03/01 08:55:20;;;;;;;18.52;4.13;;;;;;;;;;4995784;28;20038;-91
2024/03/01 08:57:47;;;;;;;16.08;4.20;;;;;;;;;;5014532;28;20544;-92
2024/03/01 09:00:22;;;;;;;15.85;4.20;;;;;;;;;;4997822;28;20029;-91
2024/03/01 09:02:48;;;;;;;15.98;3.83;;;;;;;;;;4995221;28;20026;-92
2024/03/01 09:05:14;;;;;;;;;;;;;;;;;;5019674;28;20049;-91
2024/03/01 09:07:40;;;;;;;15.20;4.47;;;;;;;;;;5001936;28;19920;-91
2024/03/01 09:10:15;;;;;;;12.20;3.45;;;;;;;;;;4997780;28;20140;-91
2024/03/01 09:12:47;;;;;;;13.52;3.67;;;;;;;;;;5000746;28;20018;-90
2024/03/01 09:15:15;;;;;;;11.98;2.75;;;;;;;;;;4997745;28;20061;-91
2024/03/01 09:17:42;;;;;;;8.80;2.60;;;;;;;;;;5000838;28;20030;-91
2024/03/01 09:20:08;;;;;;;;;;;;;;;;;;5005915;28;20109;-91
2024/03/01 09:22:34;;;;;;;6.65;1.80;;;;;;;;;;5003083;28;19912;-91
2024/03/01 09:25:00;;;;;;;9.93;2.22;;;;;;;;;;5016594;28;20022;-91
2024/03/01 09:27:33;;;;;;;8.52;1.90;;;;;;;;;;5001751;28;20029;-91
2024/03/01 09:30:02;;;;;;;6.68;1.80;;;;;;;;;;5016599;28;20034;-91
2024/03/01 09:32:28;;;;;;;9.32;2.38;;;;;;;;;;5001673;28;20036;-91
2024/03/01 09:34:55;;;;;;;9.75;2.65;;;;;;;;;;5016714;28;20763;-92
2024/03/01 09:37:22;;;;;;;11.10;3.13;;;;;;;;;;4996777;28;20037;-92
2024/03/01 09:39:48;;;;;;;13.05;3.95;;;;;;;;;;5018636;28;20024;-92
2024/03/01 09:42:14;;;;;;;;;;;;;;;;;;5004216;28;20026;-92
2024/03/01 09:44:51;;;;;;;12.23;3.58;;;;;;;;;;5010167;28;19928;-92
2024/03/01 09:47:17;;;;;;;13.57;3.50;;;;;;;;;;5011387;28;20026;-91
2024/03/01 09:49:44;;;;;;;10.40;3.90;;;;;;;;;;5025822;28;20105;-87
2024/03/01 09:52:23;;;;;;;10.85;3.80;;;;;;;;;;5024463;28;20029;-92
2024/03/01 09:54:55;;;;;;;10.57;3.33;;;;;;;;;;5013942;28;20037;-92
2024/03/01 09:57:26;;;;;;;9.32;3.20;;;;;;;;;;5018235;28;20036;-90
2024/03/01 09:59:55;;;;;;;8.90;2.47;;;;;;;;;;5020120;28;20032;-91
2024/03/01 10:02:40;;;;;;;6.07;1.33;;;;;;;;;;4995436;28;20060;-90
2024/03/01 10:05:09;;;;;;;5.82;1.20;;;;;;;;;;4994532;28;20278;-89
2024/03/01 10:07:39;;;;;;;5.10;1.50;;;;;;;;;;5001326;28;20022;-90
2024/03/01 10:10:05;;;;;;;5.78;1.70;;;;;;;;;;4983947;28;20034;-91
2024/03/01 10:12:34;;;;;;;5.03;1.15;;;;;;;;;;4990427;28;20060;-91
2024/03/01 10:15:01;;;;;;;5.70;1.13;;;;;;;;;;5004345;28;20829;-90
2024/03/01 10:17:45;;;;;;;6.30;1.40;;;;;;;;;;5007572;28;20046;-92
2024/03/01 10:20:17;;;;;;;7.25;1.70;;;;;;;;;;5004007;28;20382;-89
2024/03/01 10:22:43;;;;;;;5.88;1.45;;;;;;;;;;5001810;28;20069;-90
2024/03/01 10:25:13;;;;;;;8.38;2.15;;;;;;;;;;4988149;28;20888;-90
2024/03/01 10:27:39;;;;;;;8.52;1.90;;;;;;;;;;4989150;28;20033;-90
2024/03/01 10:30:18;;;;;;;10.15;2.10;;;;;;;;;;4992483;28;20037;-88
2024/03/01 10:33:03;;;;;;;8.68;2.20;;;;;;;;;;4995581;28;20510;-90
2024/03/01 10:35:35;;;;;;;12.52;2.30;;;;;;;;;;4991192;28;20041;-88
2024/03/01 10:38:21;;;;;;;8.27;1.70;;;;;;;;;;4995481;28;20030;-90
2024/03/01 10:40:53;;;;;;;10.10;2.70;;;;;;;;;;4981929;28;20057;-85
2024/03/01 10:43:25;;;;;;;9.55;2.30;;;;;;;;;;4965473;28;20026;-85
2024/03/01 10:46:13;;;;;;;11.38;2.08;;;;;;;;;;4988104;28;20096;-85
2024/03/01 10:48:48;;;;;;;9.90;1.90;;;;;;;;;;4975354;28;20033;-85
2024/03/01 10:51:16;;;;;;;10.40;1.77;;;;;;;;;;4975177;28;20033;-90
2024/03/01 10:53:51;;;;;;;7.90;1.90;;;;;;;;;;4980177;28;20034;-84
2024/03/01 10:56:17;;;;;;;8.63;2.17;;;;;;;;;;5000522;28;20084;-92
2024/03/01 10:58:44;;;;;;;9.60;2.20;;;;;;;;;;4989047;28;20037;-88
2024/03/01 11:01:28;;;;;;;9.18;1.83;;;;;;;;;;4984201;28;20034;-91
2024/03/01 11:03:57;;;;;;;8.43;1.50;;;;;;;;;;4983935;28;20034;-92
2024/03/01 11:06:26;;;;;;;10.70;2.05;;;;;;;;;;5011059;28;20049;-92
2024/03/01 11:08:56;;;;;;;8.93;1.95;;;;;;;;;;4996272;28;20029;-91
2024/03/01 11:11:22;;;;;;;8.98;1.92;;;;;;;;;;5006895;28;20029;-91
2024/03/01 11:13:50;;;;;;;9.52;1.90;;;;;;;;;;5018070;28;20116;-91
2024/03/01 11:16:19;;;;;;;9.77;1.98;;;;;;;;;;5014790;28;20034;-91
2024/03/01 11:18:47;;;;;;;9.40;2.03;;;;;;;;;;5001824;28;20041;-90
2024/03/01 11:21:18;;;;;;;11.48;2.58;;;;;;;;;;5013881;28;20018;-91
2024/03/01 11:23:48;;;;;;;10.65;2.92;;;;;;;;;;5003985;28;20037;-91
2024/03/01 11:26:26;;;;;;;9.57;2.88;;;;;;;;;;5014814;28;20021;-90
2024/03/01 11:29:05;;;;;;;8.98;2.35;;;;;;;;;;5013540;28;20060;-91
2024/03/01 11:31:33;;;;;;;9.10;2.97;;;;;;;;;;4998594;28;20034;-93
2024/03/01 11:34:01;;;;;;;13.07;3.45;;;;;;;;;;4994790;28;20618;-90
2024/03/01 11:36:36;;;;;;;14.00;3.22;;;;;;;;;;5013963;28;20102;-92
2024/03/01 11:39:13;;;;;;;12.07;4.20;;;;;;;;;;4997111;28;20148;-93
2024/03/01 11:41:48;;;;;;;11.23;3.22;;;;;;;;;;5010767;28;20279;-93
2024/03/01 11:44:21;;;;;;;10.55;3.40;;;;;;;;;;5016748;28;20102;-93
2024/03/01 11:46:50;;;;;;;10.30;2.58;;;;;;;;;;5004067;28;20235;-93
2024/03/01 11:49:29;;;;;;;8.52;2.33;;;;;;;;;;5026741;28;20070;-93
2024/03/01 11:52:03;;;;;;;9.25;2.30;;;;;;;;;;5024246;28;20033;-93
2024/03/01 11:54:32;;;;;;;10.80;2.72;;;;;;;;;;5022100;28;20033;-92
2024/03/01 11:57:04;;;;;;;10.88;2.95;;;;;;;;;;5000144;28;20094;-92
2024/03/01 11:59:50;;;;;;;9.93;2.70;;;;;;;;;;5004722;28;20022;-93
2024/03/01 12:02:16;;;;;;;;;;;;;;;;;;4998709;28;20025;-95
2024/03/01 12:04:47;;;;;;;13.43;3.25;;;;;;;;;;5009003;28;19921;-93
2024/03/01 12:07:36;;;;;;;17.13;3.38;;;;;;;;;;4997495;28;20457;-93
2024/03/01 12:10:08;;;;;;;10.07;2.60;;;;;;;;;;5001284;28;20034;-93
2024/03/01 12:12:45;;;;;;;16.05;3.75;;;;;;;;;;4998085;28;20037;-93
2024/03/01 12:15:17;;;;;;;12.05;3.03;;;;;;;;;;5012772;28;20034;-93
2024/03/01 12:18:02;;;;;;;15.40;3.42;;;;;;;;;;5002376;28;20041;-92
2024/03/01 12:20:30;;;;;;;11.50;3.45;;;;;;;;;;5028147;28;20014;-93
2024/03/01 12:23:20;;;;;;;13.40;3.60;;;;;;;;;;5012719;28;20623;-94
2024/03/01 12:25:46;;;;;;;12.85;3.08;;;;;;;;;;5005530;28;20049;-94
2024/03/01 12:28:34;;;;;;;10.35;3.03;;;;;;;;;;5014919;28;20049;-95
2024/03/01 12:31:19;;;;;;;15.75;3.63;;;;;;;;;;5023867;28;20065;-93
2024/03/01 12:34:02;;;;;;;12.50;2.90;;;;;;;;;;4999841;28;20034;-94
2024/03/01 12:36:29;;;;;;;11.30;3.45;;;;;;;;;;4997633;28;20037;-94
2024/03/01 12:39:02;;;;;;;14.50;3.25;;;;;;;;;;5013771;28;20026;-94
2024/03/01 12:41:42;;;;;;;12.70;2.80;;;;;;;;;;5017337;28;20014;-94
2024/03/01 12:44:14;;;;;;;9.65;2.33;;;;;;;;;;5003815;28;20051;-94
2024/03/01 12:46:43;;;;;;;11.60;2.35;;;;;;;;;;5011647;28;20628;-94
2024/03/01 12:49:09;;;;;;;11.15;2.70;;;;;;;;;;4998414;28;21233;-94
2024/03/01 12:51:50;;;;;;;9.65;2.28;;;;;;;;;;4999959;28;20029;-94
2024/03/01 12:54:18;;;;;;;10.52;2.50;;;;;;;;;;4999520;28;20428;-94
2024/03/01 12:57:20;;;;;;;10.07;2.63;;;;;;;;;;5001182;28;20084;-94
2024/03/01 12:59:52;;;;;;;9.77;2.58;;;;;;;;;;4931667;28;20035;-94
2024/03/01 13:02:37;;;;;;;9.90;1.70;;;;;;;;;;4932064;28;20340;-94
2024/03/01 13:05:06;;;;;;;9.60;1.92;;;;;;;;;;4930851;28;20074;-94
2024/03/01 13:07:34;;;;;;;12.13;2.20;;;;;;;;;;4935087;28;20129;-93
2024/03/01 13:10:01;;;;;;;11.55;2.13;;;;;;;;;;4936342;28;20106;-94
2024/03/01 13:12:28;;;;;;;10.38;2.50;;;;;;;;;;4943966;28;20031;-94
2024/03/01 13:14:58;;;;;;;9.88;1.83;;;;;;;;;;4941348;28;20051;-93
2024/03/01 13:17:30;;;;;;;8.98;2.33;;;;;;;;;;4945939;28;20122;-93
2024/03/01 13:20:29;;;;;;;9.70;2.25;;;;;;;;;;4965316;28;20039;-93
2024/03/01 13:23:13;;;;;;;7.35;1.73;;;;;;;;;;4912722;28;20058;-94
2024/03/01 13:25:54;;;;;;;11.55;2.03;;;;;;;;;;4933007;28;20043;-94
2024/03/01 13:28:26;;;;;;;11.73;1.83;;;;;;;;;;4931712;28;20053;-94
2024/03/01 13:30:56;;;;;;;8.55;1.77;;;;;;;;;;4930643;28;20035;-94
2024/03/01 13:33:35;;;;;;;7.32;1.73;;;;;;;;;;4955151;28;20061;-94
2024/03/01 13:36:10;;;;;;;10.60;2.10;;;;;;;;;;5003271;28;20053;-95
2024/03/01 13:38:42;;;;;;;8.07;1.63;;;;;;;;;;4997758;28;20071;-93
2024/03/01 13:41:17;;;;;;;7.82;1.75;;;;;;;;;;5016076;28;20040;-94
2024/03/01 13:43:47;;;;;;;6.55;1.10;;;;;;;;;;5003725;28;20842;-94
2024/03/01 13:46:15;;;;;;;7.68;1.70;;;;;;;;;;5000040;28;20025;-94
2024/03/01 13:48:47;;;;;;;8.13;1.40;;;;;;;;;;5013427;28;20030;-94
2024/03/01 13:51:14;;;;;;;7.30;1.30;;;;;;;;;;4997467;28;20033;-93
2024/03/01 13:53:47;;;;;;;5.95;1.23;;;;;;;;;;4999811;28;20135;-94
2024/03/01 13:56:21;;;;;;;7.70;1.60;;;;;;;;;;4998819;28;20045;-94
2024/03/01 13:58:48;;;;;;;9.50;2.35;;;;;;;;;;4999143;28;20048;-94
2024/03/01 14:01:17;;;;;;;6.60;1.50;;;;;;;;;;5001474;28;20022;-94
2024/03/01 14:03:53;;;;;;;6.88;2.05;;;;;;;;;;5000062;28;20172;-93
2024/03/01 14:06:22;;;;;;;7.82;1.30;;;;;;;;;;4996101;28;20049;-93
2024/03/01 14:08:52;;;;;;;6.40;1.90;;;;;;;;;;5018649;28;20179;-93
2024/03/01 14:11:18;;;;;;;8.48;2.55;;;;;;;;;;5008365;28;20544;-93
2024/03/01 14:13:49;;;;;;;6.90;2.03;;;;;;;;;;4999040;28;20056;-93
2024/03/01 14:16:16;;;;;;;5.75;1.73;;;;;;;;;;5005148;28;20037;-93
2024/03/01 14:18:44;;;;;;;4.40;1.35;;;;;;;;;;5001849;28;20037;-95
2024/03/01 14:21:10;;;;;;;10.82;1.55;;;;;;;;;;4997924;28;20033;-93
2024/03/01 14:23:39;;;;;;;7.53;1.50;;;;;;;;;;4997688;28;20034;-92
2024/03/01 14:26:06;;;;;;;6.97;1.45;;;;;;;;;;5009547;28;20063;-93
2024/03/01 14:28:32;;;;;;;7.05;1.30;;;;;;;;;;5019156;28;20030;-93
2024/03/01 14:30:59;;;;;;;6.75;1.30;;;;;;;;;;5019782;28;20882;-92
2024/03/01 14:33:27;;;;;;;9.52;1.70;;;;;;;;;;5004771;28;20044;-93
2024/03/01 14:36:06;;;;;;;6.45;1.35;;;;;;;;;;4993605;28;20082;-92
2024/03/01 14:38:33;;;;;;;4.38;1.20;;;;;;;;;;4988195;28;21013;-84
2024/03/01 14:41:01;;;;;;;6.38;1.30;;;;;;;;;;4983994;28;20168;-84
2024/03/01 14:43:28;;;;;;;4.88;1.58;;;;;;;;;;4984757;28;20033;-82
2024/03/01 14:45:57;;;;;;;10.32;2.03;;;;;;;;;;4998048;28;20143;-82
2024/03/01 14:48:25;;;;;;;6.80;2.30;;;;;;;;;;4982809;28;20844;-82
2024/03/01 14:50:57;;;;;;;7.20;1.40;;;;;;;;;;4981998;28;20062;-81
2024/03/01 14:53:34;;;;;;;5.93;1.33;;;;;;;;;;4989191;28;20029;-85
2024/03/01 14:56:00;;;;;;;7.53;1.77;;;;;;;;;;4985240;28;20434;-85